Time,TemperatureF,DewpointF,PressureIn,WindDirection,WindDirectionDegrees,WindSpeedMPH,WindSpeedGustMPH,Humidity,HourlyPrecipIn,Conditions,Clouds,dailyrainin,SoftwareType,DateUTC
2013-12-07 00:02:00,47.8,36.3,-100.00,North,-999,-999.0,-999.0,64,-99.99,,---,-99.99,VWS V14.01,2013-12-07 08:02:00,
2013-12-07 00:11:00,47.8,36.3,-100.00,North,-999,-999.0,-999.0,64,-99.99,,---,-99.99,VWS V14.01,2013-12-07 08:11:00,
2013-12-07 00:16:00,47.7,36.1,-100.00,North,-999,-999.0,-999.0,64,-99.99,,---,-99.99,VWS V14.01,2013-12-07 08:16:00,
2013-12-07 00:21:00,47.7,36.1,-100.00,North,-999,-999.0,-999.0,64,-99.99,,---,-99.99,VWS V14.01,2013-12-07 08:21:00,
2013-12-07 00:26:00,47.5,35.9,-100.00,North,-999,-999.0,-999.0,64,-99.99,,---,-99.99,VWS V14.01,2013-12-07 08:26:00,
2013-12-07 00:31:00,47.3,35.8,-100.00,North,-999,-999.0,-999.0,64,-99.99,,---,-99.99,VWS V14.01,2013-12-07 08:31:00,
2013-12-07 00:36:00,47.3,35.8,-100.00,North,-999,-999.0,-999.0,64,-99.99,,---,-99.99,VWS V14.01,2013-12-07 08:36:00,
2013-12-07 00:41:00,47.3,36.2,-100.00,North,-999,-999.0,-999.0,65,-99.99,,---,-99.99,VWS V14.01,2013-12-07 08:41:00,
2013-12-07 00:46:00,47.3,36.2,-100.00,North,-999,-999.0,-999.0,65,-99.99,,---,-99.99,VWS V14.01,2013-12-07 08:46:00,
2013-12-07 00:51:00,47.3,36.2,-100.00,North,-999,-999.0,-999.0,65,-99.99,,---,-99.99,VWS V14.01,2013-12-07 08:51:00,
2013-12-07 00:56:00,47.3,36.2,-100.00,North,-999,-999.0,-999.0,65,-99.99,,---,-99.99,VWS V14.01,2013-12-07 08:56:00,
2013-12-07 01:01:00,47.3,36.2,-100.00,North,-999,-999.0,-999.0,65,-99.99,,---,-99.99,VWS V14.01,2013-12-07 09:01:00,
2013-12-07 01:11:00,47.3,36.5,-100.00,North,-999,-999.0,-999.0,66,-99.99,,---,-99.99,VWS V14.01,2013-12-07 09:11:00,
2013-12-07 01:16:00,47.3,36.5,-100.00,North,-999,-999.0,-999.0,66,-99.99,,---,-99.99,VWS V14.01,2013-12-07 09:16:00,
2013-12-07 01:21:00,47.3,36.5,-100.00,North,-999,-999.0,-999.0,66,-99.99,,---,-99.99,VWS V14.01,2013-12-07 09:21:00,
2013-12-07 01:26:00,47.5,36.7,-100.00,North,-999,-999.0,-999.0,66,-99.99,,---,-99.99,VWS V14.01,2013-12-07 09:26:00,
2013-12-07 01:31:00,47.5,36.7,-100.00,North,-999,-999.0,-999.0,66,-99.99,,---,-99.99,VWS V14.01,2013-12-07 09:31:00,
2013-12-07 01:36:00,47.5,36.7,-100.00,North,-999,-999.0,-999.0,66,-99.99,,---,-99.99,VWS V14.01,2013-12-07 09:36:00,
2013-12-07 01:41:00,47.3,36.5,-100.00,North,-999,-999.0,-999.0,66,-99.99,,---,-99.99,VWS V14.01,2013-12-07 09:41:00,
2013-12-07 01:46:00,47.3,36.5,-100.00,North,-999,-999.0,-999.0,66,-99.99,,---,-99.99,VWS V14.01,2013-12-07 09:46:00,
2013-12-07 01:51:00,47.3,36.5,-100.00,North,-999,-999.0,-999.0,66,-99.99,,---,-99.99,VWS V14.01,2013-12-07 09:51:00,
2013-12-07 01:56:00,47.1,36.4,-100.00,North,-999,-999.0,-999.0,66,-99.99,,---,-99.99,VWS V14.01,2013-12-07 09:56:00,
2013-12-07 02:01:00,47.1,36.4,-100.00,North,-999,-999.0,-999.0,66,-99.99,,---,-99.99,VWS V14.01,2013-12-07 10:01:00,
2013-12-07 02:11:00,47.1,36.4,-100.00,North,-999,-999.0,-999.0,66,-99.99,,---,-99.99,VWS V14.01,2013-12-07 10:11:00,
2013-12-07 02:16:00,46.9,36.2,-100.00,North,-999,-999.0,-999.0,66,-99.99,,---,-99.99,VWS V14.01,2013-12-07 10:16:00,
2013-12-07 02:21:00,46.9,36.2,-100.00,North,-999,-999.0,-999.0,66,-99.99,,---,-99.99,VWS V14.01,2013-12-07 10:21:00,
2013-12-07 02:26:00,46.9,36.2,-100.00,North,-999,-999.0,-999.0,66,-99.99,,---,-99.99,VWS V14.01,2013-12-07 10:26:00,
2013-12-07 02:31:00,46.9,36.2,-100.00,North,-999,-999.0,-999.0,66,-99.99,,---,-99.99,VWS V14.01,2013-12-07 10:31:00,
2013-12-07 02:36:00,46.8,36.0,-100.00,North,-999,-999.0,-999.0,66,-99.99,,---,-99.99,VWS V14.01,2013-12-07 10:36:00,
2013-12-07 02:41:00,46.8,36.0,-100.00,North,-999,-999.0,-999.0,66,-99.99,,---,-99.99,VWS V14.01,2013-12-07 10:41:00,
2013-12-07 02:46:00,46.8,36.0,-100.00,North,-999,-999.0,-999.0,66,-99.99,,---,-99.99,VWS V14.01,2013-12-07 10:46:00,
2013-12-07 02:51:00,46.6,35.8,-100.00,North,-999,-999.0,-999.0,66,-99.99,,---,-99.99,VWS V14.01,2013-12-07 10:51:00,
2013-12-07 02:56:00,46.6,35.5,-100.00,North,-999,-999.0,-999.0,65,-99.99,,---,-99.99,VWS V14.01,2013-12-07 10:56:00,
2013-12-07 03:01:00,46.4,35.3,-100.00,North,-999,-999.0,-999.0,65,-99.99,,---,-99.99,VWS V14.01,2013-12-07 11:01:00,
2013-12-07 03:06:00,46.2,35.1,-100.00,North,-999,-999.0,-999.0,65,-99.99,,---,-99.99,VWS V14.01,2013-12-07 11:06:00,
2013-12-07 03:12:00,46.2,35.1,-100.00,North,-999,-999.0,-999.0,65,-99.99,,---,-99.99,VWS V14.01,2013-12-07 11:12:00,
2013-12-07 03:17:00,46.2,35.5,-100.00,North,-999,-999.0,-999.0,66,-99.99,,---,-99.99,VWS V14.01,2013-12-07 11:17:00,
2013-12-07 03:22:00,46.0,35.0,-100.00,North,-999,-999.0,-999.0,65,-99.99,,---,-99.99,VWS V14.01,2013-12-07 11:22:00,
2013-12-07 03:27:00,46.0,35.0,-100.00,North,-999,-999.0,-999.0,65,-99.99,,---,-99.99,VWS V14.01,2013-12-07 11:27:00,
2013-12-07 03:32:00,45.9,34.8,-100.00,North,-999,-999.0,-999.0,65,-99.99,,---,-99.99,VWS V14.01,2013-12-07 11:32:00,
2013-12-07 03:37:00,45.9,34.8,-100.00,North,-999,-999.0,-999.0,65,-99.99,,---,-99.99,VWS V14.01,2013-12-07 11:37:00,
2013-12-07 03:42:00,45.9,34.8,-100.00,North,-999,-999.0,-999.0,65,-99.99,,---,-99.99,VWS V14.01,2013-12-07 11:42:00,
2013-12-07 03:47:00,45.7,34.6,-100.00,North,-999,-999.0,-999.0,65,-99.99,,---,-99.99,VWS V14.01,2013-12-07 11:47:00,
2013-12-07 03:52:00,45.7,34.6,-100.00,North,-999,-999.0,-999.0,65,-99.99,,---,-99.99,VWS V14.01,2013-12-07 11:52:00,
2013-12-07 03:57:00,45.5,34.4,-100.00,North,-999,-999.0,-999.0,65,-99.99,,---,-99.99,VWS V14.01,2013-12-07 11:57:00,
2013-12-07 04:02:00,45.5,34.4,-100.00,North,-999,-999.0,-999.0,65,-99.99,,---,-99.99,VWS V14.01,2013-12-07 12:02:00,
2013-12-07 04:07:00,45.3,34.3,-100.00,North,-999,-999.0,-999.0,65,-99.99,,---,-99.99,VWS V14.01,2013-12-07 12:07:00,
2013-12-07 04:12:00,45.1,34.1,-100.00,North,-999,-999.0,-999.0,65,-99.99,,---,-99.99,VWS V14.01,2013-12-07 12:12:00,
2013-12-07 04:17:00,45.0,33.9,-100.00,North,-999,-999.0,-999.0,65,-99.99,,---,-99.99,VWS V14.01,2013-12-07 12:17:00,
2013-12-07 04:22:00,44.8,33.8,-100.00,North,-999,-999.0,-999.0,65,-99.99,,---,-99.99,VWS V14.01,2013-12-07 12:22:00,
2013-12-07 04:27:00,44.6,33.2,-100.00,North,-999,-999.0,-999.0,64,-99.99,,---,-99.99,VWS V14.01,2013-12-07 12:27:00,
2013-12-07 04:32:00,44.6,33.2,-100.00,North,-999,-999.0,-999.0,64,-99.99,,---,-99.99,VWS V14.01,2013-12-07 12:32:00,
2013-12-07 04:37:00,44.4,33.4,-100.00,North,-999,-999.0,-999.0,65,-99.99,,---,-99.99,VWS V14.01,2013-12-07 12:37:00,
2013-12-07 04:42:00,44.2,32.8,-100.00,North,-999,-999.0,-999.0,64,-99.99,,---,-99.99,VWS V14.01,2013-12-07 12:42:00,
2013-12-07 04:47:00,44.2,32.8,-100.00,North,-999,-999.0,-999.0,64,-99.99,,---,-99.99,VWS V14.01,2013-12-07 12:47:00,
2013-12-07 04:52:00,44.1,32.7,-100.00,North,-999,-999.0,-999.0,64,-99.99,,---,-99.99,VWS V14.01,2013-12-07 12:52:00,
2013-12-07 04:57:00,44.1,32.7,-100.00,North,-999,-999.0,-999.0,64,-99.99,,---,-99.99,VWS V14.01,2013-12-07 12:57:00,
2013-12-07 05:02:00,43.9,32.5,-100.00,North,-999,-999.0,-999.0,64,-99.99,,---,-99.99,VWS V14.01,2013-12-07 13:02:00,
2013-12-07 05:07:00,43.7,32.3,-100.00,North,-999,-999.0,-999.0,64,-99.99,,---,-99.99,VWS V14.01,2013-12-07 13:07:00,
2013-12-07 05:12:00,43.7,32.0,-100.00,North,-999,-999.0,-999.0,63,-99.99,,---,-99.99,VWS V14.01,2013-12-07 13:12:00,
2013-12-07 05:17:00,43.5,31.8,-100.00,North,-999,-999.0,-999.0,63,-99.99,,---,-99.99,VWS V14.01,2013-12-07 13:17:00,
2013-12-07 05:22:00,43.5,31.8,-100.00,North,-999,-999.0,-999.0,63,-99.99,,---,-99.99,VWS V14.01,2013-12-07 13:22:00,
2013-12-07 05:27:00,43.3,31.6,-100.00,North,-999,-999.0,-999.0,63,-99.99,,---,-99.99,VWS V14.01,2013-12-07 13:27:00,
2013-12-07 05:32:00,43.3,31.6,-100.00,North,-999,-999.0,-999.0,63,-99.99,,---,-99.99,VWS V14.01,2013-12-07 13:32:00,
2013-12-07 05:37:00,43.0,31.3,-100.00,North,-999,-999.0,-999.0,63,-99.99,,---,-99.99,VWS V14.01,2013-12-07 13:37:00,
2013-12-07 05:42:00,43.0,31.3,-100.00,North,-999,-999.0,-999.0,63,-99.99,,---,-99.99,VWS V14.01,2013-12-07 13:42:00,
2013-12-07 05:47:00,42.8,30.7,-100.00,North,-999,-999.0,-999.0,62,-99.99,,---,-99.99,VWS V14.01,2013-12-07 13:47:00,
2013-12-07 05:52:00,42.6,30.9,-100.00,North,-999,-999.0,-999.0,63,-99.99,,---,-99.99,VWS V14.01,2013-12-07 13:52:00,
2013-12-07 05:57:00,42.4,30.8,-100.00,North,-999,-999.0,-999.0,63,-99.99,,---,-99.99,VWS V14.01,2013-12-07 13:57:00,
2013-12-07 06:02:00,42.3,30.6,-100.00,North,-999,-999.0,-999.0,63,-99.99,,---,-99.99,VWS V14.01,2013-12-07 14:02:00,
2013-12-07 06:07:00,42.3,30.6,-100.00,North,-999,-999.0,-999.0,63,-99.99,,---,-99.99,VWS V14.01,2013-12-07 14:07:00,
2013-12-07 06:12:00,42.1,30.4,-100.00,North,-999,-999.0,-999.0,63,-99.99,,---,-99.99,VWS V14.01,2013-12-07 14:12:00,
2013-12-07 06:17:00,42.1,30.4,-100.00,North,-999,-999.0,-999.0,63,-99.99,,---,-99.99,VWS V14.01,2013-12-07 14:17:00,
2013-12-07 06:22:00,41.9,30.2,-100.00,North,-999,-999.0,-999.0,63,-99.99,,---,-99.99,VWS V14.01,2013-12-07 14:22:00,
2013-12-07 06:27:00,41.7,30.1,-100.00,North,-999,-999.0,-999.0,63,-99.99,,---,-99.99,VWS V14.01,2013-12-07 14:27:00,
2013-12-07 06:32:00,41.5,29.9,-100.00,North,-999,-999.0,-999.0,63,-99.99,,---,-99.99,VWS V14.01,2013-12-07 14:32:00,
2013-12-07 06:37:00,41.5,29.5,-100.00,North,-999,-999.0,-999.0,62,-99.99,,---,-99.99,VWS V14.01,2013-12-07 14:37:00,
2013-12-07 06:42:00,41.5,29.5,-100.00,North,-999,-999.0,-999.0,62,-99.99,,---,-99.99,VWS V14.01,2013-12-07 14:42:00,
2013-12-07 06:47:00,41.5,29.5,-100.00,North,-999,-999.0,-999.0,62,-99.99,,---,-99.99,VWS V14.01,2013-12-07 14:47:00,
2013-12-07 06:52:00,41.4,29.3,-100.00,North,-999,-999.0,-999.0,62,-99.99,,---,-99.99,VWS V14.01,2013-12-07 14:52:00,
2013-12-07 06:57:00,41.4,28.9,-100.00,North,-999,-999.0,-999.0,61,-99.99,,---,-99.99,VWS V14.01,2013-12-07 14:57:00,
2013-12-07 07:02:00,41.4,28.9,-100.00,North,-999,-999.0,-999.0,61,-99.99,,---,-99.99,VWS V14.01,2013-12-07 15:02:00,
2013-12-07 07:07:00,41.2,28.8,-100.00,North,-999,-999.0,-999.0,61,-99.99,,---,-99.99,VWS V14.01,2013-12-07 15:07:00,
2013-12-07 07:12:00,41.2,28.8,-100.00,North,-999,-999.0,-999.0,61,-99.99,,---,-99.99,VWS V14.01,2013-12-07 15:12:00,
2013-12-07 07:17:00,41.2,28.8,-100.00,North,-999,-999.0,-999.0,61,-99.99,,---,-99.99,VWS V14.01,2013-12-07 15:17:00,
2013-12-07 07:22:00,41.2,28.8,-100.00,North,-999,-999.0,-999.0,61,-99.99,,---,-99.99,VWS V14.01,2013-12-07 15:22:00,
2013-12-07 07:27:00,41.0,28.6,-100.00,North,-999,-999.0,-999.0,61,-99.99,,---,-99.99,VWS V14.01,2013-12-07 15:27:00,
2013-12-07 07:32:00,40.8,28.4,-100.00,North,-999,-999.0,-999.0,61,-99.99,,---,-99.99,VWS V14.01,2013-12-07 15:32:00,
2013-12-07 07:37:00,40.8,28.4,-100.00,North,-999,-999.0,-999.0,61,-99.99,,---,-99.99,VWS V14.01,2013-12-07 15:37:00,
2013-12-07 07:42:00,41.0,28.2,-100.00,North,-999,-999.0,-999.0,60,-99.99,,---,-99.99,VWS V14.01,2013-12-07 15:42:00,
2013-12-07 07:47:00,41.2,28.4,-100.00,North,-999,-999.0,-999.0,60,-99.99,,---,-99.99,VWS V14.01,2013-12-07 15:47:00,
2013-12-07 07:52:00,41.4,28.9,-100.00,North,-999,-999.0,-999.0,61,-99.99,,---,-99.99,VWS V14.01,2013-12-07 15:52:00,
2013-12-07 07:57:00,41.7,28.9,-100.00,North,-999,-999.0,-999.0,60,-99.99,,---,-99.99,VWS V14.01,2013-12-07 15:57:00,
2013-12-07 08:02:00,41.7,28.9,-100.00,North,-999,-999.0,-999.0,60,-99.99,,---,-99.99,VWS V14.01,2013-12-07 16:02:00,
2013-12-07 08:11:00,42.6,29.7,-100.00,North,-999,-999.0,-999.0,60,-99.99,,---,-99.99,VWS V14.01,2013-12-07 16:11:00,
2013-12-07 08:16:00,43.0,30.1,-100.00,North,-999,-999.0,-999.0,60,-99.99,,---,-99.99,VWS V14.01,2013-12-07 16:16:00,
2013-12-07 08:21:00,43.3,30.4,-100.00,North,-999,-999.0,-999.0,60,-99.99,,---,-99.99,VWS V14.01,2013-12-07 16:21:00,
2013-12-07 08:26:00,43.7,30.3,-100.00,North,-999,-999.0,-999.0,59,-99.99,,---,-99.99,VWS V14.01,2013-12-07 16:26:00,
2013-12-07 08:31:00,44.1,30.7,-100.00,North,-999,-999.0,-999.0,59,-99.99,,---,-99.99,VWS V14.01,2013-12-07 16:31:00,
2013-12-07 08:36:00,44.4,31.0,-100.00,North,-999,-999.0,-999.0,59,-99.99,,---,-99.99,VWS V14.01,2013-12-07 16:36:00,
2013-12-07 08:41:00,44.8,31.3,-100.00,North,-999,-999.0,-999.0,59,-99.99,,---,-99.99,VWS V14.01,2013-12-07 16:41:00,
2013-12-07 08:46:00,45.0,31.1,-100.00,North,-999,-999.0,-999.0,58,-99.99,,---,-99.99,VWS V14.01,2013-12-07 16:46:00,
2013-12-07 08:51:00,45.3,31.4,-100.00,North,-999,-999.0,-999.0,58,-99.99,,---,-99.99,VWS V14.01,2013-12-07 16:51:00,
2013-12-07 08:56:00,45.5,31.6,-100.00,North,-999,-999.0,-999.0,58,-99.99,,---,-99.99,VWS V14.01,2013-12-07 16:56:00,
2013-12-07 09:01:00,45.9,31.9,-100.00,North,-999,-999.0,-999.0,58,-99.99,,---,-99.99,VWS V14.01,2013-12-07 17:01:00,
2013-12-07 09:06:00,46.0,31.7,-100.00,North,-999,-999.0,-999.0,57,-99.99,,---,-99.99,VWS V14.01,2013-12-07 17:06:00,
2013-12-07 09:11:00,46.2,31.8,-100.00,North,-999,-999.0,-999.0,57,-99.99,,---,-99.99,VWS V14.01,2013-12-07 17:11:00,
2013-12-07 09:16:00,46.4,31.6,-100.00,North,-999,-999.0,-999.0,56,-99.99,,---,-99.99,VWS V14.01,2013-12-07 17:16:00,
2013-12-07 09:21:00,46.6,31.7,-100.00,North,-999,-999.0,-999.0,56,-99.99,,---,-99.99,VWS V14.01,2013-12-07 17:21:00,
2013-12-07 09:26:00,46.6,31.7,-100.00,North,-999,-999.0,-999.0,56,-99.99,,---,-99.99,VWS V14.01,2013-12-07 17:26:00,
2013-12-07 09:31:00,46.6,31.7,-100.00,North,-999,-999.0,-999.0,56,-99.99,,---,-99.99,VWS V14.01,2013-12-07 17:31:00,
2013-12-07 09:36:00,46.6,31.3,-100.00,North,-999,-999.0,-999.0,55,-99.99,,---,-99.99,VWS V14.01,2013-12-07 17:36:00,
2013-12-07 09:41:00,46.8,31.5,-100.00,North,-999,-999.0,-999.0,55,-99.99,,---,-99.99,VWS V14.01,2013-12-07 17:41:00,
2013-12-07 09:46:00,46.9,31.6,-100.00,North,-999,-999.0,-999.0,55,-99.99,,---,-99.99,VWS V14.01,2013-12-07 17:46:00,
2013-12-07 09:51:00,46.8,31.0,-100.00,North,-999,-999.0,-999.0,54,-99.99,,---,-99.99,VWS V14.01,2013-12-07 17:51:00,
2013-12-07 09:56:00,46.9,31.2,-100.00,North,-999,-999.0,-999.0,54,-99.99,,---,-99.99,VWS V14.01,2013-12-07 17:56:00,
2013-12-07 10:01:00,47.1,31.4,-100.00,North,-999,-999.0,-999.0,54,-99.99,,---,-99.99,VWS V14.01,2013-12-07 18:01:00,
2013-12-07 10:06:00,47.3,31.5,-100.00,North,-999,-999.0,-999.0,54,-99.99,,---,-99.99,VWS V14.01,2013-12-07 18:06:00,
2013-12-07 10:11:00,47.5,31.7,-100.00,North,-999,-999.0,-999.0,54,-99.99,,---,-99.99,VWS V14.01,2013-12-07 18:11:00,
2013-12-07 10:16:00,47.7,31.4,-100.00,North,-999,-999.0,-999.0,53,-99.99,,---,-99.99,VWS V14.01,2013-12-07 18:16:00,
2013-12-07 10:21:00,47.8,31.5,-100.00,North,-999,-999.0,-999.0,53,-99.99,,---,-99.99,VWS V14.01,2013-12-07 18:21:00,
2013-12-07 10:26:00,47.8,31.5,-100.00,North,-999,-999.0,-999.0,53,-99.99,,---,-99.99,VWS V14.01,2013-12-07 18:26:00,
2013-12-07 10:31:00,48.0,31.2,-100.00,North,-999,-999.0,-999.0,52,-99.99,,---,-99.99,VWS V14.01,2013-12-07 18:31:00,
2013-12-07 10:36:00,48.2,31.4,-100.00,North,-999,-999.0,-999.0,52,-99.99,,---,-99.99,VWS V14.01,2013-12-07 18:36:00,
2013-12-07 10:41:00,48.4,31.6,-100.00,North,-999,-999.0,-999.0,52,-99.99,,---,-99.99,VWS V14.01,2013-12-07 18:41:00,
2013-12-07 10:46:00,48.6,31.8,-100.00,North,-999,-999.0,-999.0,52,-99.99,,---,-99.99,VWS V14.01,2013-12-07 18:46:00,
2013-12-07 10:51:00,48.7,31.4,-100.00,North,-999,-999.0,-999.0,51,-99.99,,---,-99.99,VWS V14.01,2013-12-07 18:51:00,
2013-12-07 10:57:00,48.7,31.4,-100.00,North,-999,-999.0,-999.0,51,-99.99,,---,-99.99,VWS V14.01,2013-12-07 18:57:00,
2013-12-07 11:02:00,48.9,31.6,-100.00,North,-999,-999.0,-999.0,51,-99.99,,---,-99.99,VWS V14.01,2013-12-07 19:02:00,
2013-12-07 11:07:00,49.1,31.8,-100.00,North,-999,-999.0,-999.0,51,-99.99,,---,-99.99,VWS V14.01,2013-12-07 19:07:00,
2013-12-07 11:12:00,49.1,31.3,-100.00,North,-999,-999.0,-999.0,50,-99.99,,---,-99.99,VWS V14.01,2013-12-07 19:12:00,
2013-12-07 11:17:00,49.5,31.6,-100.00,North,-999,-999.0,-999.0,50,-99.99,,---,-99.99,VWS V14.01,2013-12-07 19:17:00,
2013-12-07 11:22:00,49.3,31.5,-100.00,North,-999,-999.0,-999.0,50,-99.99,,---,-99.99,VWS V14.01,2013-12-07 19:22:00,
2013-12-07 11:27:00,49.5,31.6,-100.00,North,-999,-999.0,-999.0,50,-99.99,,---,-99.99,VWS V14.01,2013-12-07 19:27:00,
2013-12-07 11:32:00,49.5,31.6,-100.00,North,-999,-999.0,-999.0,50,-99.99,,---,-99.99,VWS V14.01,2013-12-07 19:32:00,
2013-12-07 11:37:00,49.5,31.1,-100.00,North,-999,-999.0,-999.0,49,-99.99,,---,-99.99,VWS V14.01,2013-12-07 19:37:00,
2013-12-07 11:42:00,49.5,31.1,-100.00,North,-999,-999.0,-999.0,49,-99.99,,---,-99.99,VWS V14.01,2013-12-07 19:42:00,
2013-12-07 11:47:00,49.8,31.4,-100.00,North,-999,-999.0,-999.0,49,-99.99,,---,-99.99,VWS V14.01,2013-12-07 19:47:00,
2013-12-07 11:52:00,49.6,30.8,-100.00,North,-999,-999.0,-999.0,48,-99.99,,---,-99.99,VWS V14.01,2013-12-07 19:52:00,
2013-12-07 11:57:00,49.5,30.6,-100.00,North,-999,-999.0,-999.0,48,-99.99,,---,-99.99,VWS V14.01,2013-12-07 19:57:00,
2013-12-07 12:02:00,49.5,30.6,-100.00,North,-999,-999.0,-999.0,48,-99.99,,---,-99.99,VWS V14.01,2013-12-07 20:02:00,
2013-12-07 12:07:00,49.5,30.6,-100.00,North,-999,-999.0,-999.0,48,-99.99,,---,-99.99,VWS V14.01,2013-12-07 20:07:00,
2013-12-07 12:12:00,49.5,30.6,-100.00,North,-999,-999.0,-999.0,48,-99.99,,---,-99.99,VWS V14.01,2013-12-07 20:12:00,
2013-12-07 12:17:00,49.6,30.8,-100.00,North,-999,-999.0,-999.0,48,-99.99,,---,-99.99,VWS V14.01,2013-12-07 20:17:00,
2013-12-07 12:22:00,49.6,30.8,-100.00,North,-999,-999.0,-999.0,48,-99.99,,---,-99.99,VWS V14.01,2013-12-07 20:22:00,
2013-12-07 12:27:00,49.6,30.8,-100.00,North,-999,-999.0,-999.0,48,-99.99,,---,-99.99,VWS V14.01,2013-12-07 20:27:00,
2013-12-07 12:32:00,49.5,30.1,-100.00,North,-999,-999.0,-999.0,47,-99.99,,---,-99.99,VWS V14.01,2013-12-07 20:32:00,
2013-12-07 12:37:00,49.5,30.1,-100.00,North,-999,-999.0,-999.0,47,-99.99,,---,-99.99,VWS V14.01,2013-12-07 20:37:00,
2013-12-07 12:42:00,49.5,30.1,-100.00,North,-999,-999.0,-999.0,47,-99.99,,---,-99.99,VWS V14.01,2013-12-07 20:42:00,
2013-12-07 12:47:00,49.5,30.1,-100.00,North,-999,-999.0,-999.0,47,-99.99,,---,-99.99,VWS V14.01,2013-12-07 20:47:00,
2013-12-07 12:52:00,49.6,30.2,-100.00,North,-999,-999.0,-999.0,47,-99.99,,---,-99.99,VWS V14.01,2013-12-07 20:52:00,
2013-12-07 12:57:00,49.6,30.2,-100.00,North,-999,-999.0,-999.0,47,-99.99,,---,-99.99,VWS V14.01,2013-12-07 20:57:00,
2013-12-07 13:02:00,49.6,30.2,-100.00,North,-999,-999.0,-999.0,47,-99.99,,---,-99.99,VWS V14.01,2013-12-07 21:02:00,
2013-12-07 13:07:00,49.8,30.4,-100.00,North,-999,-999.0,-999.0,47,-99.99,,---,-99.99,VWS V14.01,2013-12-07 21:07:00,
2013-12-07 13:12:00,50.0,30.0,-100.00,North,-999,-999.0,-999.0,46,-99.99,,---,-99.99,VWS V14.01,2013-12-07 21:12:00,
2013-12-07 13:17:00,50.0,30.0,-100.00,North,-999,-999.0,-999.0,46,-99.99,,---,-99.99,VWS V14.01,2013-12-07 21:17:00,
2013-12-07 13:22:00,50.0,30.0,-100.00,North,-999,-999.0,-999.0,46,-99.99,,---,-99.99,VWS V14.01,2013-12-07 21:22:00,
2013-12-07 13:27:00,50.2,30.2,-100.00,North,-999,-999.0,-999.0,46,-99.99,,---,-99.99,VWS V14.01,2013-12-07 21:27:00,
2013-12-07 13:32:00,50.0,29.5,-100.00,North,-999,-999.0,-999.0,45,-99.99,,---,-99.99,VWS V14.01,2013-12-07 21:32:00,
2013-12-07 13:37:00,50.0,30.0,-100.00,North,-999,-999.0,-999.0,46,-99.99,,---,-99.99,VWS V14.01,2013-12-07 21:37:00,
2013-12-07 13:42:00,50.2,29.7,-100.00,North,-999,-999.0,-999.0,45,-99.99,,---,-99.99,VWS V14.01,2013-12-07 21:42:00,
2013-12-07 13:47:00,50.2,29.7,-100.00,North,-999,-999.0,-999.0,45,-99.99,,---,-99.99,VWS V14.01,2013-12-07 21:47:00,
2013-12-07 13:52:00,50.2,29.7,-100.00,North,-999,-999.0,-999.0,45,-99.99,,---,-99.99,VWS V14.01,2013-12-07 21:52:00,
2013-12-07 13:57:00,50.0,29.5,-100.00,North,-999,-999.0,-999.0,45,-99.99,,---,-99.99,VWS V14.01,2013-12-07 21:57:00,
2013-12-07 14:02:00,50.2,29.7,-100.00,North,-999,-999.0,-999.0,45,-99.99,,---,-99.99,VWS V14.01,2013-12-07 22:02:00,
2013-12-07 14:11:00,50.0,29.0,-100.00,North,-999,-999.0,-999.0,44,-99.99,,---,-99.99,VWS V14.01,2013-12-07 22:11:00,
2013-12-07 14:16:00,50.0,29.0,-100.00,North,-999,-999.0,-999.0,44,-99.99,,---,-99.99,VWS V14.01,2013-12-07 22:16:00,
2013-12-07 14:21:00,50.0,29.0,-100.00,North,-999,-999.0,-999.0,44,-99.99,,---,-99.99,VWS V14.01,2013-12-07 22:21:00,
2013-12-07 14:26:00,50.0,29.0,-100.00,North,-999,-999.0,-999.0,44,-99.99,,---,-99.99,VWS V14.01,2013-12-07 22:26:00,
2013-12-07 14:31:00,49.8,28.8,-100.00,North,-999,-999.0,-999.0,44,-99.99,,---,-99.99,VWS V14.01,2013-12-07 22:31:00,
2013-12-07 14:36:00,49.5,28.5,-100.00,North,-999,-999.0,-999.0,44,-99.99,,---,-99.99,VWS V14.01,2013-12-07 22:36:00,
2013-12-07 14:41:00,49.3,28.3,-100.00,North,-999,-999.0,-999.0,44,-99.99,,---,-99.99,VWS V14.01,2013-12-07 22:41:00,
2013-12-07 14:46:00,49.1,28.1,-100.00,North,-999,-999.0,-999.0,44,-99.99,,---,-99.99,VWS V14.01,2013-12-07 22:46:00,
2013-12-07 14:51:00,49.1,28.1,-100.00,North,-999,-999.0,-999.0,44,-99.99,,---,-99.99,VWS V14.01,2013-12-07 22:51:00,
2013-12-07 14:56:00,49.1,28.1,-100.00,North,-999,-999.0,-999.0,44,-99.99,,---,-99.99,VWS V14.01,2013-12-07 22:56:00,
2013-12-07 15:01:00,49.1,28.1,-100.00,North,-999,-999.0,-999.0,44,-99.99,,---,-99.99,VWS V14.01,2013-12-07 23:01:00,
2013-12-07 15:06:00,49.1,28.1,-100.00,North,-999,-999.0,-999.0,44,-99.99,,---,-99.99,VWS V14.01,2013-12-07 23:06:00,
2013-12-07 15:11:00,48.7,27.8,-100.00,North,-999,-999.0,-999.0,44,-99.99,,---,-99.99,VWS V14.01,2013-12-07 23:11:00,
2013-12-07 15:16:00,48.7,27.8,-100.00,North,-999,-999.0,-999.0,44,-99.99,,---,-99.99,VWS V14.01,2013-12-07 23:16:00,
2013-12-07 15:21:00,48.6,27.6,-100.00,North,-999,-999.0,-999.0,44,-99.99,,---,-99.99,VWS V14.01,2013-12-07 23:21:00,
2013-12-07 15:26:00,48.4,26.9,-100.00,North,-999,-999.0,-999.0,43,-99.99,,---,-99.99,VWS V14.01,2013-12-07 23:26:00,
2013-12-07 15:31:00,48.0,27.2,-100.00,North,-999,-999.0,-999.0,44,-99.99,,---,-99.99,VWS V14.01,2013-12-07 23:31:00,
2013-12-07 15:36:00,47.8,27.0,-100.00,North,-999,-999.0,-999.0,44,-99.99,,---,-99.99,VWS V14.01,2013-12-07 23:36:00,
2013-12-07 15:41:00,47.8,27.0,-100.00,North,-999,-999.0,-999.0,44,-99.99,,---,-99.99,VWS V14.01,2013-12-07 23:41:00,
2013-12-07 15:46:00,47.7,26.8,-100.00,North,-999,-999.0,-999.0,44,-99.99,,---,-99.99,VWS V14.01,2013-12-07 23:46:00,
2013-12-07 15:51:00,47.7,26.8,-100.00,North,-999,-999.0,-999.0,44,-99.99,,---,-99.99,VWS V14.01,2013-12-07 23:51:00,
2013-12-07 15:56:00,47.7,26.8,-100.00,North,-999,-999.0,-999.0,44,-99.99,,---,-99.99,VWS V14.01,2013-12-07 23:56:00,
2013-12-07 16:01:00,47.7,26.8,-100.00,North,-999,-999.0,-999.0,44,-99.99,,---,-99.99,VWS V14.01,2013-12-08 00:01:00,
2013-12-07 16:06:00,47.5,26.1,-100.00,North,-999,-999.0,-999.0,43,-99.99,,---,-99.99,VWS V14.01,2013-12-08 00:06:00,
2013-12-07 16:12:00,47.5,26.1,-100.00,North,-999,-999.0,-999.0,43,-99.99,,---,-99.99,VWS V14.01,2013-12-08 00:12:00,
2013-12-07 16:17:00,47.3,26.0,-100.00,North,-999,-999.0,-999.0,43,-99.99,,---,-99.99,VWS V14.01,2013-12-08 00:17:00,
2013-12-07 16:22:00,47.3,26.0,-100.00,North,-999,-999.0,-999.0,43,-99.99,,---,-99.99,VWS V14.01,2013-12-08 00:22:00,
2013-12-07 16:27:00,47.3,26.0,-100.00,North,-999,-999.0,-999.0,43,-99.99,,---,-99.99,VWS V14.01,2013-12-08 00:27:00,
2013-12-07 16:32:00,47.1,25.8,-100.00,North,-999,-999.0,-999.0,43,-99.99,,---,-99.99,VWS V14.01,2013-12-08 00:32:00,
2013-12-07 16:37:00,47.1,25.8,-100.00,North,-999,-999.0,-999.0,43,-99.99,,---,-99.99,VWS V14.01,2013-12-08 00:37:00,
2013-12-07 16:42:00,46.9,25.6,-100.00,North,-999,-999.0,-999.0,43,-99.99,,---,-99.99,VWS V14.01,2013-12-08 00:42:00,
2013-12-07 16:47:00,46.8,25.5,-100.00,North,-999,-999.0,-999.0,43,-99.99,,---,-99.99,VWS V14.01,2013-12-08 00:47:00,
2013-12-07 16:52:00,46.8,25.5,-100.00,North,-999,-999.0,-999.0,43,-99.99,,---,-99.99,VWS V14.01,2013-12-08 00:52:00,
2013-12-07 16:57:00,46.6,25.3,-100.00,North,-999,-999.0,-999.0,43,-99.99,,---,-99.99,VWS V14.01,2013-12-08 00:57:00,
2013-12-07 17:02:00,46.4,25.1,-100.00,North,-999,-999.0,-999.0,43,-99.99,,---,-99.99,VWS V14.01,2013-12-08 01:02:00,
2013-12-07 17:07:00,46.4,25.1,-100.00,North,-999,-999.0,-999.0,43,-99.99,,---,-99.99,VWS V14.01,2013-12-08 01:07:00,
2013-12-07 17:12:00,46.2,25.5,-100.00,North,-999,-999.0,-999.0,44,-99.99,,---,-99.99,VWS V14.01,2013-12-08 01:12:00,
2013-12-07 17:17:00,46.2,25.5,-100.00,North,-999,-999.0,-999.0,44,-99.99,,---,-99.99,VWS V14.01,2013-12-08 01:17:00,
2013-12-07 17:22:00,46.0,25.4,-100.00,North,-999,-999.0,-999.0,44,-99.99,,---,-99.99,VWS V14.01,2013-12-08 01:22:00,
2013-12-07 17:27:00,46.0,25.4,-100.00,North,-999,-999.0,-999.0,44,-99.99,,---,-99.99,VWS V14.01,2013-12-08 01:27:00,
2013-12-07 17:32:00,45.9,25.2,-100.00,North,-999,-999.0,-999.0,44,-99.99,,---,-99.99,VWS V14.01,2013-12-08 01:32:00,
2013-12-07 17:37:00,45.9,25.2,-100.00,North,-999,-999.0,-999.0,44,-99.99,,---,-99.99,VWS V14.01,2013-12-08 01:37:00,
2013-12-07 17:42:00,45.7,25.0,-100.00,North,-999,-999.0,-999.0,44,-99.99,,---,-99.99,VWS V14.01,2013-12-08 01:42:00,
2013-12-07 17:47:00,45.5,24.9,-100.00,North,-999,-999.0,-999.0,44,-99.99,,---,-99.99,VWS V14.01,2013-12-08 01:47:00,
2013-12-07 17:52:00,45.3,24.7,-100.00,North,-999,-999.0,-999.0,44,-99.99,,---,-99.99,VWS V14.01,2013-12-08 01:52:00,
2013-12-07 17:57:00,45.1,24.5,-100.00,North,-999,-999.0,-999.0,44,-99.99,,---,-99.99,VWS V14.01,2013-12-08 01:57:00,
2013-12-07 18:02:00,45.1,24.5,-100.00,North,-999,-999.0,-999.0,44,-99.99,,---,-99.99,VWS V14.01,2013-12-08 02:02:00,
2013-12-07 18:07:00,45.0,24.4,-100.00,North,-999,-999.0,-999.0,44,-99.99,,---,-99.99,VWS V14.01,2013-12-08 02:07:00,
2013-12-07 18:12:00,44.8,24.2,-100.00,North,-999,-999.0,-999.0,44,-99.99,,---,-99.99,VWS V14.01,2013-12-08 02:12:00,
2013-12-07 18:17:00,44.8,24.2,-100.00,North,-999,-999.0,-999.0,44,-99.99,,---,-99.99,VWS V14.01,2013-12-08 02:17:00,
2013-12-07 18:22:00,44.6,24.0,-100.00,North,-999,-999.0,-999.0,44,-99.99,,---,-99.99,VWS V14.01,2013-12-08 02:22:00,
2013-12-07 18:27:00,44.4,24.4,-100.00,North,-999,-999.0,-999.0,45,-99.99,,---,-99.99,VWS V14.01,2013-12-08 02:27:00,
2013-12-07 18:32:00,44.2,24.3,-100.00,North,-999,-999.0,-999.0,45,-99.99,,---,-99.99,VWS V14.01,2013-12-08 02:32:00,
2013-12-07 18:37:00,44.2,24.3,-100.00,North,-999,-999.0,-999.0,45,-99.99,,---,-99.99,VWS V14.01,2013-12-08 02:37:00,
2013-12-07 18:42:00,44.2,24.3,-100.00,North,-999,-999.0,-999.0,45,-99.99,,---,-99.99,VWS V14.01,2013-12-08 02:42:00,
2013-12-07 18:47:00,44.2,24.3,-100.00,North,-999,-999.0,-999.0,45,-99.99,,---,-99.99,VWS V14.01,2013-12-08 02:47:00,
2013-12-07 18:52:00,44.2,24.3,-100.00,North,-999,-999.0,-999.0,45,-99.99,,---,-99.99,VWS V14.01,2013-12-08 02:52:00,
2013-12-07 18:57:00,44.1,24.1,-100.00,North,-999,-999.0,-999.0,45,-99.99,,---,-99.99,VWS V14.01,2013-12-08 02:57:00,
2013-12-07 19:02:00,43.9,23.9,-100.00,North,-999,-999.0,-999.0,45,-99.99,,---,-99.99,VWS V14.01,2013-12-08 03:02:00,
2013-12-07 19:07:00,43.7,23.8,-100.00,North,-999,-999.0,-999.0,45,-99.99,,---,-99.99,VWS V14.01,2013-12-08 03:07:00,
2013-12-07 19:12:00,43.7,23.8,-100.00,North,-999,-999.0,-999.0,45,-99.99,,---,-99.99,VWS V14.01,2013-12-08 03:12:00,
2013-12-07 19:17:00,43.5,23.6,-100.00,North,-999,-999.0,-999.0,45,-99.99,,---,-99.99,VWS V14.01,2013-12-08 03:17:00,
2013-12-07 19:22:00,43.3,23.4,-100.00,North,-999,-999.0,-999.0,45,-99.99,,---,-99.99,VWS V14.01,2013-12-08 03:22:00,
2013-12-07 19:27:00,43.2,23.8,-100.00,North,-999,-999.0,-999.0,46,-99.99,,---,-99.99,VWS V14.01,2013-12-08 03:27:00,
2013-12-07 19:32:00,43.0,23.6,-100.00,North,-999,-999.0,-999.0,46,-99.99,,---,-99.99,VWS V14.01,2013-12-08 03:32:00,
2013-12-07 19:37:00,43.0,23.6,-100.00,North,-999,-999.0,-999.0,46,-99.99,,---,-99.99,VWS V14.01,2013-12-08 03:37:00,
2013-12-07 19:42:00,42.6,23.3,-100.00,North,-999,-999.0,-999.0,46,-99.99,,---,-99.99,VWS V14.01,2013-12-08 03:42:00,
2013-12-07 19:47:00,42.6,23.8,-100.00,North,-999,-999.0,-999.0,47,-99.99,,---,-99.99,VWS V14.01,2013-12-08 03:47:00,
2013-12-07 19:52:00,42.4,23.6,-100.00,North,-999,-999.0,-999.0,47,-99.99,,---,-99.99,VWS V14.01,2013-12-08 03:52:00,
2013-12-07 19:57:00,42.4,23.6,-100.00,North,-999,-999.0,-999.0,47,-99.99,,---,-99.99,VWS V14.01,2013-12-08 03:57:00,
2013-12-07 20:02:00,42.4,23.6,-100.00,North,-999,-999.0,-999.0,47,-99.99,,---,-99.99,VWS V14.01,2013-12-08 04:02:00,
2013-12-07 20:11:00,42.1,23.3,-100.00,North,-999,-999.0,-999.0,47,-99.99,,---,-99.99,VWS V14.01,2013-12-08 04:11:00,
2013-12-07 20:16:00,41.9,23.2,-100.00,North,-999,-999.0,-999.0,47,-99.99,,---,-99.99,VWS V14.01,2013-12-08 04:16:00,
2013-12-07 20:21:00,42.1,23.8,-100.00,North,-999,-999.0,-999.0,48,-99.99,,---,-99.99,VWS V14.01,2013-12-08 04:21:00,
2013-12-07 20:26:00,41.7,23.5,-100.00,North,-999,-999.0,-999.0,48,-99.99,,---,-99.99,VWS V14.01,2013-12-08 04:26:00,
2013-12-07 20:31:00,41.5,23.3,-100.00,North,-999,-999.0,-999.0,48,-99.99,,---,-99.99,VWS V14.01,2013-12-08 04:31:00,
2013-12-07 20:36:00,41.2,23.0,-100.00,North,-999,-999.0,-999.0,48,-99.99,,---,-99.99,VWS V14.01,2013-12-08 04:36:00,
2013-12-07 20:42:00,41.2,23.0,-100.00,North,-999,-999.0,-999.0,48,-99.99,,---,-99.99,VWS V14.01,2013-12-08 04:42:00,
2013-12-07 20:47:00,40.8,22.7,-100.00,North,-999,-999.0,-999.0,48,-99.99,,---,-99.99,VWS V14.01,2013-12-08 04:47:00,
2013-12-07 20:52:00,40.6,22.5,-100.00,North,-999,-999.0,-999.0,48,-99.99,,---,-99.99,VWS V14.01,2013-12-08 04:52:00,
2013-12-07 20:57:00,40.5,22.8,-100.00,North,-999,-999.0,-999.0,49,-99.99,,---,-99.99,VWS V14.01,2013-12-08 04:57:00,
2013-12-07 21:02:00,40.6,23.0,-100.00,North,-999,-999.0,-999.0,49,-99.99,,---,-99.99,VWS V14.01,2013-12-08 05:02:00,
2013-12-07 21:03:00,40.6,23.0,-100.00,North,-999,-999.0,-999.0,49,-99.99,,---,-99.99,VWS V14.01,2013-12-08 05:03:00,
2013-12-07 21:05:00,40.6,23.0,-100.00,North,-999,-999.0,-999.0,49,-99.99,,---,-99.99,VWS V14.01,2013-12-08 05:05:00,
2013-12-07 21:10:00,40.5,22.8,-100.00,North,-999,-999.0,-999.0,49,-99.99,,---,-99.99,VWS V14.01,2013-12-08 05:10:00,
2013-12-07 21:13:00,40.5,22.8,-100.00,North,-999,-999.0,-999.0,49,-99.99,,---,-99.99,VWS V14.01,2013-12-08 05:13:00,
2013-12-07 21:17:00,40.3,22.7,-100.00,North,-999,-999.0,-999.0,49,-99.99,,---,-99.99,VWS V14.01,2013-12-08 05:17:00,
2013-12-07 21:22:00,40.3,22.7,-100.00,North,-999,-999.0,-999.0,49,-99.99,,---,-99.99,VWS V14.01,2013-12-08 05:22:00,
2013-12-07 21:27:00,40.3,22.7,-100.00,North,-999,-999.0,-999.0,49,-99.99,,---,-99.99,VWS V14.01,2013-12-08 05:27:00,
2013-12-07 21:32:00,40.1,22.5,-100.00,North,-999,-999.0,-999.0,49,-99.99,,---,-99.99,VWS V14.01,2013-12-08 05:32:00,
2013-12-07 21:37:00,40.1,22.5,-100.00,North,-999,-999.0,-999.0,49,-99.99,,---,-99.99,VWS V14.01,2013-12-08 05:37:00,
2013-12-07 21:42:00,40.3,22.7,-100.00,North,-999,-999.0,-999.0,49,-99.99,,---,-99.99,VWS V14.01,2013-12-08 05:42:00,
2013-12-07 21:47:00,40.3,22.7,-100.00,North,-999,-999.0,-999.0,49,-99.99,,---,-99.99,VWS V14.01,2013-12-08 05:47:00,
2013-12-07 21:52:00,40.1,22.5,-100.00,North,-999,-999.0,-999.0,49,-99.99,,---,-99.99,VWS V14.01,2013-12-08 05:52:00,
2013-12-07 21:57:00,39.9,22.3,-100.00,North,-999,-999.0,-999.0,49,-99.99,,---,-99.99,VWS V14.01,2013-12-08 05:57:00,
2013-12-07 22:02:00,39.7,22.2,-100.00,North,-999,-999.0,-999.0,49,-99.99,,---,-99.99,VWS V14.01,2013-12-08 06:02:00,
2013-12-07 22:07:00,39.7,22.6,-100.00,North,-999,-999.0,-999.0,50,-99.99,,---,-99.99,VWS V14.01,2013-12-08 06:07:00,
2013-12-07 22:12:00,39.7,22.6,-100.00,North,-999,-999.0,-999.0,50,-99.99,,---,-99.99,VWS V14.01,2013-12-08 06:12:00,
2013-12-07 22:17:00,39.7,22.6,-100.00,North,-999,-999.0,-999.0,50,-99.99,,---,-99.99,VWS V14.01,2013-12-08 06:17:00,
2013-12-07 22:22:00,39.7,22.6,-100.00,North,-999,-999.0,-999.0,50,-99.99,,---,-99.99,VWS V14.01,2013-12-08 06:22:00,
2013-12-07 22:27:00,39.4,22.3,-100.00,North,-999,-999.0,-999.0,50,-99.99,,---,-99.99,VWS V14.01,2013-12-08 06:27:00,
2013-12-07 22:32:00,39.2,22.1,-100.00,North,-999,-999.0,-999.0,50,-99.99,,---,-99.99,VWS V14.01,2013-12-08 06:32:00,
2013-12-07 22:37:00,39.2,22.1,-100.00,North,-999,-999.0,-999.0,50,-99.99,,---,-99.99,VWS V14.01,2013-12-08 06:37:00,
2013-12-07 22:42:00,39.0,22.0,-100.00,North,-999,-999.0,-999.0,50,-99.99,,---,-99.99,VWS V14.01,2013-12-08 06:42:00,
2013-12-07 22:47:00,39.0,22.0,-100.00,North,-999,-999.0,-999.0,50,-99.99,,---,-99.99,VWS V14.01,2013-12-08 06:47:00,
2013-12-07 22:52:00,39.0,22.4,-100.00,North,-999,-999.0,-999.0,51,-99.99,,---,-99.99,VWS V14.01,2013-12-08 06:52:00,
2013-12-07 22:57:00,38.8,22.3,-100.00,North,-999,-999.0,-999.0,51,-99.99,,---,-99.99,VWS V14.01,2013-12-08 06:57:00,
2013-12-07 23:02:00,38.8,22.3,-100.00,North,-999,-999.0,-999.0,51,-99.99,,---,-99.99,VWS V14.01,2013-12-08 07:02:00,
2013-12-07 23:07:00,38.7,22.1,-100.00,North,-999,-999.0,-999.0,51,-99.99,,---,-99.99,VWS V14.01,2013-12-08 07:07:00,
2013-12-07 23:12:00,38.7,22.1,-100.00,North,-999,-999.0,-999.0,51,-99.99,,---,-99.99,VWS V14.01,2013-12-08 07:12:00,
2013-12-07 23:17:00,38.5,21.9,-100.00,North,-999,-999.0,-999.0,51,-99.99,,---,-99.99,VWS V14.01,2013-12-08 07:17:00,
2013-12-07 23:22:00,38.5,21.9,-100.00,North,-999,-999.0,-999.0,51,-99.99,,---,-99.99,VWS V14.01,2013-12-08 07:22:00,
2013-12-07 23:27:00,38.3,21.8,-100.00,North,-999,-999.0,-999.0,51,-99.99,,---,-99.99,VWS V14.01,2013-12-08 07:27:00,
2013-12-07 23:32:00,38.3,21.8,-100.00,North,-999,-999.0,-999.0,51,-99.99,,---,-99.99,VWS V14.01,2013-12-08 07:32:00,
2013-12-07 23:37:00,38.1,21.6,-100.00,North,-999,-999.0,-999.0,51,-99.99,,---,-99.99,VWS V14.01,2013-12-08 07:37:00,
2013-12-07 23:42:00,37.8,21.3,-100.00,North,-999,-999.0,-999.0,51,-99.99,,---,-99.99,VWS V14.01,2013-12-08 07:42:00,
2013-12-07 23:47:00,37.4,20.9,-100.00,North,-999,-999.0,-999.0,51,-99.99,,---,-99.99,VWS V14.01,2013-12-08 07:47:00,
2013-12-07 23:52:00,37.2,20.8,-100.00,North,-999,-999.0,-999.0,51,-99.99,,---,-99.99,VWS V14.01,2013-12-08 07:52:00,
2013-12-07 23:57:00,37.2,20.8,-100.00,North,-999,-999.0,-999.0,51,-99.99,,---,-99.99,VWS V14.01,2013-12-08 07:57:00,